Time;durP1;ratioP1;P1;durP2;ratioP2;P2;SDS_P1;SDS_P2;PMS_P1;PMS_P2;Temp;Humidity;BMP_temperature;BMP_pressure;BME280_temperature;BME280_humidity;BME280_pressure;Samples;Min_cycle;Max_cycle;Signal;HPM_P1;HPM_P2
2023/01/05 00:01:38;;;;;;;1.37;1.30;;;;;;;8.85;71.59;96175.59;5112727;28;20503;-56
2023/01/05 00:04:07;;;;;;;0.90;0.90;;;;;;;8.83;72.07;96175.06;5112489;28;20430;-56
2023/01/05 00:06:36;;;;;;;0.83;0.83;;;;;;;8.85;71.20;96172.19;5112860;28;20509;-56
2023/01/05 00:09:05;;;;;;;1.30;1.03;;;;;;;8.62;71.05;96116.78;5111933;28;20846;-56
2023/01/05 00:22:46;;;;;;;1.67;1.57;;;;;;;9.16;71.64;96168.22;5112254;28;20924;-56
2023/01/05 00:25:16;;;;;;;1.90;1.83;;;;;;;8.38;74.21;96171.53;5112555;28;20488;-56
2023/01/05 00:27:49;;;;;;;2.30;2.13;;;;;;;8.33;75.12;96158.25;5112258;28;20516;-57
2023/01/05 00:30:21;;;;;;;3.60;1.97;;;;;;;8.62;75.30;96156.41;5112580;28;20508;-56
2023/01/05 00:32:50;;;;;;;1.37;1.37;;;;;;;8.83;74.37;96148.63;5112527;28;20506;-56
2023/01/05 00:35:19;;;;;;;3.93;1.03;;;;;;;8.86;73.59;96126.19;5112106;28;20419;-56
2023/01/05 00:37:48;;;;;;;3.70;3.60;;;;;;;9.22;72.26;96146.09;5111147;28;20417;-56
2023/01/05 00:40:18;;;;;;;4.30;1.27;;;;;;;9.24;72.66;96138.72;5111186;28;20564;-56
2023/01/05 00:42:47;;;;;;;1.13;1.03;;;;;;;9.30;71.92;96146.50;5112065;28;20453;-56
2023/01/05 00:45:17;;;;;;;1.73;1.63;;;;;;;8.94;71.83;96092.25;5111668;28;20470;-56
2023/01/05 00:47:47;;;;;;;4.03;3.20;;;;;;;9.26;71.58;96144.59;5111972;28;20852;-56
2023/01/05 00:50:18;;;;;;;2.50;1.70;;;;;;;9.15;72.32;96105.78;5111396;28;20486;-57
2023/01/05 00:52:46;;;;;;;5.30;1.03;;;;;;;9.34;71.87;96109.78;5111950;28;20433;-56
2023/01/05 00:55:15;;;;;;;1.83;1.73;;;;;;;9.26;71.35;96108.34;5111985;28;20899;-56
2023/01/05 00:57:44;;;;;;;5.70;1.90;;;;;;;9.48;71.37;96124.28;5111997;28;20920;-56
2023/01/05 01:00:16;;;;;;;0.80;0.80;;;;;;;9.59;71.14;96137.41;5111856;28;20421;-56
2023/01/05 01:02:44;;;;;;;2.50;1.00;;;;;;;9.34;71.81;96147.63;5111411;28;20945;-57
2023/01/05 01:05:14;;;;;;;2.13;2.03;;;;;;;9.10;72.75;96132.97;5111769;28;20481;-56
2023/01/05 01:07:43;;;;;;;1.40;1.30;;;;;;;8.92;73.22;96127.88;5111831;28;20518;-56
2023/01/05 01:10:12;;;;;;;1.93;1.83;;;;;;;8.57;74.86;96138.66;5111744;28;20946;-56
2023/01/05 01:12:40;;;;;;;2.53;2.20;;;;;;;7.91;76.14;96069.72;5112080;28;20862;-56
2023/01/05 01:15:11;;;;;;;3.80;1.60;;;;;;;8.64;75.14;96138.50;5112159;28;20517;-56
2023/01/05 01:17:40;;;;;;;7.63;1.03;;;;;;;8.82;74.49;96131.16;5111985;28;20425;-56
2023/01/05 01:20:09;;;;;;;2.90;2.80;;;;;;;8.93;73.75;96130.28;5110959;28;21122;-56
2023/01/05 01:22:39;;;;;;;1.33;1.23;;;;;;;8.76;73.87;96078.44;5111535;28;20428;-56
2023/01/05 01:25:08;;;;;;;2.57;2.47;;;;;;;8.73;74.97;96122.00;5111550;28;20553;-55
2023/01/05 01:27:36;;;;;;;1.50;1.50;;;;;;;9.06;73.58;96117.81;5111095;28;20422;-55
2023/01/05 01:30:06;;;;;;;2.20;2.10;;;;;;;8.78;74.48;96111.53;5111703;28;20418;-55
2023/01/05 01:32:34;;;;;;;1.20;1.13;;;;;;;8.34;77.38;96117.59;5111827;28;20419;-56
2023/01/05 01:35:02;;;;;;;1.67;1.43;;;;;;;8.81;76.24;96112.88;5111500;28;20427;-56
2023/01/05 01:37:31;;;;;;;1.43;1.43;;;;;;;9.09;75.95;96106.75;5111865;28;20471;-56
2023/01/05 01:40:01;;;;;;;0.40;0.40;;;;;;;8.68;75.76;96040.00;5111659;28;20409;-56
2023/01/05 01:42:30;;;;;;;0.63;0.63;;;;;;;7.61;78.38;96015.28;5111448;28;20422;-56
2023/01/05 01:45:00;;;;;;;5.33;0.93;;;;;;;8.68;77.24;96098.13;5111575;28;20492;-55
2023/01/05 01:47:35;;;;;;;3.33;1.03;;;;;;;8.03;79.86;96110.06;5111593;28;20510;-56
2023/01/05 01:50:08;;;;;;;0.93;0.83;;;;;;;8.29;80.24;96101.66;5113318;28;20491;-56
2023/01/05 01:52:38;;;;;;;2.20;1.63;;;;;;;7.98;82.22;96092.28;5114383;28;20913;-56
2023/01/05 01:55:09;;;;;;;1.83;1.33;;;;;;;8.25;79.66;96093.34;5115159;28;20421;-56
2023/01/05 01:57:38;;;;;;;0.70;0.70;;;;;;;8.32;79.30;96092.44;5114019;28;20426;-56
2023/01/05 02:00:09;;;;;;;1.73;0.70;;;;;;;8.37;78.31;96059.03;5114799;28;20773;-56
2023/01/05 02:02:37;;;;;;;2.30;0.70;;;;;;;8.11;78.15;96078.03;5114791;28;20422;-56
2023/01/05 02:05:09;;;;;;;0.87;0.60;;;;;;;7.80;82.54;96084.53;5114900;28;20443;-56
2023/01/05 02:07:40;;;;;;;0.70;0.60;;;;;;;7.87;83.75;96064.09;5114737;28;20421;-56
2023/01/05 02:10:10;;;;;;;0.50;0.40;;;;;;;8.39;80.30;96069.34;5115053;28;20851;-55
2023/01/05 02:12:57;;;;;;;0.67;0.67;;;;;;;8.04;81.07;96061.53;5114974;28;20423;-56
2023/01/05 02:15:37;;;;;;;1.30;1.30;;;;;;;8.70;78.38;96052.97;5114485;28;20418;-56
2023/01/05 02:18:20;;;;;;;1.77;1.67;;;;;;;8.83;76.69;96060.56;5114088;28;20905;-56
2023/01/05 02:21:04;;;;;;;0.50;0.50;;;;;;;8.76;75.23;96026.38;5114398;28;20774;-55
2023/01/05 02:23:58;;;;;;;0.30;0.27;;;;;;;8.99;75.02;96045.75;5114639;28;20449;-56
2023/01/05 02:27:10;;;;;;;0.70;0.70;;;;;;;8.79;74.28;96004.75;5114306;28;21061;-55
2023/01/05 02:30:15;;;;;;;0.30;0.30;;;;;;;8.83;75.15;96042.88;5114111;28;20514;-55
2023/01/05 02:32:52;;;;;;;0.60;0.60;;;;;;;9.05;74.28;96048.25;5113143;28;20456;-56
2023/01/05 02:35:27;;;;;;;0.63;0.60;;;;;;;8.67;74.04;95974.97;5113366;28;20433;-56
2023/01/05 02:38:02;;;;;;;0.40;0.40;;;;;;;8.97;74.33;96035.44;5113838;28;20500;-56
2023/01/05 02:40:36;;;;;;;0.63;0.63;;;;;;;8.94;74.32;96028.78;5113990;28;20923;-56
2023/01/05 02:43:06;;;;;;;0.80;0.77;;;;;;;8.62;75.11;96035.69;5113536;28;20933;-56
2023/01/05 02:45:34;;;;;;;0.30;0.20;;;;;;;8.49;77.03;96035.16;5113518;28;20596;-56
2023/01/05 02:48:04;;;;;;;0.50;0.50;;;;;;;8.62;76.03;96035.69;5113975;28;20443;-56
2023/01/05 02:50:38;;;;;;;5.83;0.50;;;;;;;8.79;75.33;96020.63;5113601;28;20466;-55
2023/01/05 02:53:09;;;;;;;1.73;0.40;;;;;;;8.79;74.99;96031.19;5113807;28;20452;-56
2023/01/05 02:55:42;;;;;;;0.83;0.83;;;;;;;8.77;75.02;96022.72;5114131;28;20428;-56
2023/01/05 02:58:16;;;;;;;0.77;0.77;;;;;;;8.96;74.07;96004.75;5113634;28;20509;-56
2023/01/05 03:00:50;;;;;;;0.57;0.57;;;;;;;8.29;76.13;96010.03;5112670;28;20966;-56
2023/01/05 03:03:25;;;;;;;0.60;0.60;;;;;;;8.35;77.76;96012.75;5113572;28;20903;-56
2023/01/05 03:05:57;;;;;;;0.97;0.83;;;;;;;8.55;77.20;96007.81;5113717;28;20472;-56
2023/01/05 03:08:30;;;;;;;0.43;0.30;;;;;;;8.32;76.87;95981.53;5112363;28;20459;-56
2023/01/05 03:13:54;;;;;;;1.60;1.07;;;;;;;8.00;79.59;96007.59;5113409;28;20436;-56
2023/01/05 03:16:28;;;;;;;0.40;0.40;;;;;;;8.36;78.90;96003.78;5113351;28;20426;-56
2023/01/05 03:35:55;;;;;;;1.97;0.97;;;;;;;8.22;79.06;95988.19;5112999;28;20440;-55
2023/01/05 03:38:30;;;;;;;6.93;0.93;;;;;;;8.58;77.13;95988.81;5112680;28;20417;-55
2023/01/05 03:41:03;;;;;;;2.00;0.93;;;;;;;8.58;76.96;95992.25;5112062;28;20433;-56
2023/01/05 03:43:34;;;;;;;0.60;0.60;;;;;;;8.56;76.35;95977.69;5112710;28;20426;-56
2023/01/05 03:46:10;;;;;;;0.73;0.73;;;;;;;8.11;78.09;95983.78;5112753;28;20495;-56
2023/01/05 03:48:38;;;;;;;0.57;0.57;;;;;;;7.87;80.69;95994.69;5112748;28;20610;-56
2023/01/05 03:51:09;;;;;;;1.03;0.93;;;;;;;7.07;83.14;95920.00;5112603;28;20550;-56
2023/01/05 03:53:37;;;;;;;3.30;3.20;;;;;;;6.85;90.61;95990.97;5113084;28;20472;-56
2023/01/05 03:56:06;;;;;;;1.80;1.20;;;;;;;6.87;91.96;95992.34;5112673;28;20422;-56
2023/01/05 03:58:34;;;;;;;2.53;2.33;;;;;;;6.49;95.83;95959.56;5112630;28;20463;-56
2023/01/05 04:01:03;;;;;;;4.17;3.93;;;;;;;6.54;94.72;95944.69;5112488;28;20948;-56
2023/01/05 04:03:31;;;;;;;0.93;0.93;;;;;;;7.39;88.94;95982.66;5112478;28;20409;-56
2023/01/05 04:06:00;;;;;;;1.47;1.43;;;;;;;7.36;86.94;95985.75;5112284;28;20425;-56
2023/01/05 04:08:30;;;;;;;0.97;0.93;;;;;;;7.21;89.55;95982.78;5112458;28;20463;-56
2023/01/05 04:11:10;;;;;;;2.50;2.00;;;;;;;7.76;85.09;95982.31;5112158;28;20428;-56
2023/01/05 04:13:38;;;;;;;9.00;2.00;;;;;;;8.05;82.33;95995.28;5111743;28;20424;-56
2023/01/05 04:16:07;;;;;;;2.30;1.00;;;;;;;7.79;82.97;95987.94;5111745;28;20429;-56
2023/01/05 04:18:36;;;;;;;0.63;0.63;;;;;;;7.73;82.94;95986.25;5112006;28;20920;-56
2023/01/05 04:21:05;;;;;;;0.83;0.80;;;;;;;7.88;81.28;95980.44;5112462;28;20452;-57
2023/01/05 04:23:35;;;;;;;3.97;2.20;;;;;;;7.80;80.12;95981.63;5112150;28;20506;-57
2023/01/05 04:26:04;;;;;;;4.13;3.93;;;;;;;7.86;80.49;95971.97;5112183;28;20519;-56
2023/01/05 04:28:33;;;;;;;1.33;1.33;;;;;;;7.86;79.77;95971.97;5112060;28;20920;-57
2023/01/05 04:31:01;;;;;;;0.73;0.73;;;;;;;7.82;80.74;95970.84;5111876;28;20419;-57
2023/01/05 04:33:30;;;;;;;0.90;0.90;;;;;;;7.90;80.28;95970.44;5112046;28;20855;-56
2023/01/05 04:35:58;;;;;;;0.83;0.83;;;;;;;7.79;79.33;95968.66;5111892;28;20516;-56
2023/01/05 04:38:26;;;;;;;3.03;0.73;;;;;;;7.62;79.47;95976.50;5111828;28;20427;-56
2023/01/05 04:40:56;;;;;;;2.67;2.57;;;;;;;7.38;79.91;95970.50;5112108;28;20421;-56
2023/01/05 04:43:24;;;;;;;1.40;1.40;;;;;;;7.28;80.85;95969.50;5111951;28;20424;-56
2023/01/05 04:45:53;;;;;;;1.07;1.07;;;;;;;6.97;81.07;95936.41;5112154;28;20500;-57
2023/01/05 04:48:21;;;;;;;5.40;0.97;;;;;;;6.99;82.11;95977.31;5111676;28;20944;-57
2023/01/05 04:50:53;;;;;;;13.30;3.43;;;;;;;6.99;82.40;95968.63;5112005;28;20476;-57
2023/01/05 04:53:22;;;;;;;1.40;1.40;;;;;;;7.05;82.98;95970.34;5111932;28;20450;-56
2023/01/05 04:55:53;;;;;;;0.80;0.70;;;;;;;6.92;84.03;95965.31;5112017;28;20968;-57
2023/01/05 04:58:22;;;;;;;1.70;0.97;;;;;;;6.89;83.54;95973.66;5111950;28;20503;-57
2023/01/05 05:00:51;;;;;;;2.80;2.70;;;;;;;6.91;84.86;95974.22;5111801;28;20809;-57
2023/01/05 05:03:19;;;;;;;1.57;1.47;;;;;;;7.09;82.54;95966.19;5111472;28;20460;-57
2023/01/05 05:05:47;;;;;;;1.63;0.70;;;;;;;6.81;86.32;95963.47;5111539;28;20432;-57
2023/01/05 05:08:16;;;;;;;2.10;1.10;;;;;;;6.75;84.86;95952.03;5111766;28;20464;-57
2023/01/05 05:10:44;;;;;;;1.00;1.00;;;;;;;6.56;84.07;95957.63;5111893;28;20463;-57
2023/01/05 05:13:12;;;;;;;1.17;1.17;;;;;;;6.76;84.19;95971.25;5112067;28;20420;-57
2023/01/05 05:15:45;;;;;;;1.90;1.80;;;;;;;6.47;84.36;95933.47;5112136;28;20427;-58
2023/01/05 05:18:13;;;;;;;2.63;1.67;;;;;;;6.47;88.44;95987.97;5112068;28;20420;-57
2023/01/05 05:20:43;;;;;;;2.80;1.83;;;;;;;6.60;90.06;95991.19;5111827;28;20423;-57
2023/01/05 05:23:12;;;;;;;2.37;2.27;;;;;;;6.97;86.90;95978.59;5111536;28;20514;-58
2023/01/05 05:25:40;;;;;;;1.37;1.37;;;;;;;6.94;85.77;95979.03;5114350;28;20459;-57
2023/01/05 05:28:09;;;;;;;0.70;0.60;;;;;;;6.72;86.54;95984.09;5115043;28;20525;-58
2023/01/05 05:30:38;;;;;;;3.40;1.17;;;;;;;6.92;87.74;95981.09;5114996;28;20451;-57
2023/01/05 05:33:07;;;;;;;2.13;1.93;;;;;;;7.00;84.87;95983.41;5114890;28;20427;-57
2023/01/05 05:35:36;;;;;;;1.83;1.73;;;;;;;5.58;85.35;95817.88;5115271;28;20451;-57
2023/01/05 05:38:04;;;;;;;0.77;0.77;;;;;;;6.93;86.91;95980.09;5114871;28;20464;-57
2023/01/05 05:40:32;;;;;;;3.43;3.17;;;;;;;7.02;83.72;95981.34;5114740;28;20516;-57
2023/01/05 05:43:01;;;;;;;2.20;1.60;;;;;;;6.77;82.87;95986.03;5114690;28;20424;-57
2023/01/05 05:45:29;;;;;;;0.93;0.93;;;;;;;6.21;89.51;95994.44;5115224;28;20423;-57
2023/01/05 05:47:59;;;;;;;4.40;4.20;;;;;;;5.96;97.29;95996.41;5114402;28;21006;-57
2023/01/05 05:50:29;;;;;;;10.60;2.63;;;;;;;6.43;90.68;95979.69;5114407;28;20494;-57
2023/01/05 05:52:57;;;;;;;1.90;1.80;;;;;;;6.34;87.15;95931.84;5113842;28;20980;-57
2023/01/05 05:55:26;;;;;;;1.37;1.27;;;;;;;6.27;89.65;95990.91;5114148;28;20424;-57
2023/01/05 05:57:54;;;;;;;11.93;1.57;;;;;;;6.25;93.71;95987.66;5114124;28;20416;-57
2023/01/05 06:00:23;;;;;;;2.17;2.07;;;;;;;5.46;100.00;95985.28;5114218;28;20420;-57
2023/01/05 06:02:51;;;;;;;3.80;3.33;;;;;;;5.92;98.58;95977.63;5114137;28;20467;-57
2023/01/05 06:05:19;;;;;;;1.93;0.97;;;;;;;6.13;93.60;95973.69;5114315;28;20427;-57
2023/01/05 06:07:49;;;;;;;1.53;1.47;;;;;;;6.20;92.41;95971.75;5114530;28;21117;-57
2023/01/05 06:10:17;;;;;;;2.00;1.33;;;;;;;5.86;93.21;95970.66;5114785;28;20431;-57
2023/01/05 06:12:46;;;;;;;7.60;4.10;;;;;;;5.56;100.00;95964.53;5114482;28;20459;-57
2023/01/05 06:15:15;;;;;;;12.17;5.03;;;;;;;5.77;100.00;95961.41;5114377;28;20423;-57
2023/01/05 06:17:45;;;;;;;2.90;2.70;;;;;;;6.06;94.42;95963.28;5114646;28;20434;-57
2023/01/05 06:20:13;;;;;;;3.13;2.63;;;;;;;6.39;91.59;95960.94;5114281;28;20424;-57
2023/01/05 06:22:41;;;;;;;0.90;0.87;;;;;;;6.72;90.60;95963.03;5114311;28;20416;-57
2023/01/05 06:25:11;;;;;;;1.10;1.10;;;;;;;6.72;87.81;95955.13;5114103;28;20434;-57
2023/01/05 06:27:39;;;;;;;0.80;0.80;;;;;;;6.67;85.30;95896.25;5113889;28;20840;-57
2023/01/05 06:30:09;;;;;;;1.17;1.17;;;;;;;7.20;84.28;95946.94;5114254;28;20488;-57
2023/01/05 06:32:37;;;;;;;1.00;0.90;;;;;;;7.34;83.55;95961.44;5114172;28;20485;-57
2023/01/05 06:35:07;;;;;;;0.50;0.50;;;;;;;7.81;81.53;95962.13;5114234;28;20447;-57
2023/01/05 06:37:35;;;;;;;1.20;1.20;;;;;;;7.32;81.63;95913.41;5114325;28;20426;-56
2023/01/05 06:40:04;;;;;;;0.80;0.67;;;;;;;7.26;83.38;95977.63;5114326;28;20451;-56
2023/01/05 06:42:34;;;;;;;2.53;2.43;;;;;;;6.81;89.00;95985.34;5114287;28;20524;-57
2023/01/05 06:45:02;;;;;;;1.90;1.73;;;;;;;6.96;89.56;95977.78;5113995;28;20499;-57
2023/01/05 06:47:30;;;;;;;2.33;1.60;;;;;;;7.43;86.23;95981.16;5113690;28;20474;-57
2023/01/05 06:49:59;;;;;;;5.00;3.53;;;;;;;7.65;82.36;95945.19;5113681;28;20476;-57
2023/01/05 06:52:27;;;;;;;5.30;5.10;;;;;;;8.06;80.04;95967.06;5113898;28;20867;-57
2023/01/05 06:54:56;;;;;;;9.33;2.53;;;;;;;8.55;78.01;95966.31;5113603;28;20485;-57
2023/01/05 06:57:24;;;;;;;6.80;5.03;;;;;;;8.86;76.92;95973.69;5112789;28;21018;-57
2023/01/05 06:59:54;;;;;;;3.20;3.10;;;;;;;8.95;76.49;95971.44;5113225;28;20513;-57
2023/01/05 07:02:22;;;;;;;3.10;2.90;;;;;;;9.20;75.26;95968.34;5113465;28;20934;-57
2023/01/05 07:04:53;;;;;;;10.83;4.53;;;;;;;9.30;74.76;95969.28;5112911;28;20427;-58
2023/01/05 07:07:21;;;;;;;9.33;3.70;;;;;;;9.49;73.69;95967.13;5113506;28;20433;-56
2023/01/05 07:09:49;;;;;;;2.07;1.97;;;;;;;9.75;73.87;95968.22;5113446;28;20553;-56
2023/01/05 07:12:18;;;;;;;6.53;3.40;;;;;;;10.00;71.95;95966.66;5113193;28;20425;-56
2023/01/05 07:14:46;;;;;;;5.53;4.00;;;;;;;10.37;71.18;95968.63;5113428;28;20498;-56
2023/01/05 07:17:22;;;;;;;4.93;2.03;;;;;;;10.56;70.55;95964.53;5113030;28;20418;-57
2023/01/05 07:19:51;;;;;;;6.13;3.17;;;;;;;10.91;68.83;95954.19;5112777;28;20427;-56
2023/01/05 07:22:19;;;;;;;9.40;5.07;;;;;;;10.81;69.21;95957.59;5112979;28;20436;-56
2023/01/05 07:24:47;;;;;;;2.23;2.13;;;;;;;11.11;69.61;95956.16;5112908;28;20522;-56
2023/01/05 07:27:16;;;;;;;7.50;3.63;;;;;;;11.25;67.61;95917.53;5112883;28;20428;-56
2023/01/05 07:29:44;;;;;;;6.00;4.47;;;;;;;11.82;65.80;95954.66;5112818;28;21131;-56
2023/01/05 07:32:12;;;;;;;4.07;3.70;;;;;;;12.09;64.93;95950.75;5112440;28;20476;-57
2023/01/05 07:34:42;;;;;;;3.20;2.93;;;;;;;12.54;63.16;95944.72;5112943;28;20503;-53
2023/01/05 07:37:23;;;;;;;3.20;2.43;;;;;;;12.71;62.48;95934.59;5112727;28;20429;-53
2023/01/05 07:39:52;;;;;;;8.90;4.53;;;;;;;12.64;63.19;95943.91;5112848;28;20426;-53
2023/01/05 07:42:20;;;;;;;4.97;4.77;;;;;;;13.07;61.26;95931.91;5112712;28;20817;-53
2023/01/05 07:44:48;;;;;;;5.87;4.30;;;;;;;13.24;60.34;95935.06;5113081;28;20418;-53
2023/01/05 07:47:17;;;;;;;2.40;1.70;;;;;;;13.72;59.32;95926.38;5112457;28;20825;-53
2023/01/05 07:49:46;;;;;;;2.70;2.50;;;;;;;13.73;58.71;95913.84;5111948;28;20486;-54
2023/01/05 07:52:15;;;;;;;3.10;3.00;;;;;;;13.43;58.83;95920.09;5112607;28;20435;-54
2023/01/05 07:54:44;;;;;;;6.73;2.93;;;;;;;13.24;59.12;95921.75;5112568;28;20455;-54
2023/01/05 07:57:12;;;;;;;10.33;2.43;;;;;;;13.48;58.44;95904.13;5112599;28;20938;-54
2023/01/05 07:59:40;;;;;;;2.77;2.50;;;;;;;13.94;57.24;95908.13;5112482;28;20507;-54
2023/01/05 08:02:09;;;;;;;3.33;1.50;;;;;;;14.58;56.00;95905.31;5112469;28;20424;-56
2023/01/05 08:04:38;;;;;;;1.53;1.43;;;;;;;14.59;55.85;95914.13;5112477;28;20434;-69
2023/01/05 08:07:10;;;;;;;3.17;2.97;;;;;;;14.61;55.67;95918.09;5112806;28;20788;-69
2023/01/05 08:12:24;;;;;;;6.30;1.53;;;;;;;15.12;53.42;95918.44;5112138;28;20428;-66
2023/01/05 08:14:52;;;;;;;2.50;2.40;;;;;;;14.78;53.38;95915.00;5112220;28;20801;-67
2023/01/05 08:17:21;;;;;;;3.63;1.97;;;;;;;15.31;52.80;95910.47;5112682;28;20416;-67
2023/01/05 08:19:49;;;;;;;4.80;2.33;;;;;;;14.86;52.54;95877.03;5112255;28;20420;-66
2023/01/05 08:22:19;;;;;;;5.77;2.10;;;;;;;14.78;52.54;95909.66;5112325;28;20809;-67
2023/01/05 08:24:47;;;;;;;2.73;1.70;;;;;;;15.32;52.31;95912.06;5112945;28;20423;-68
2023/01/05 08:27:15;;;;;;;3.07;2.97;;;;;;;15.45;52.12;95913.25;5114142;28;20920;-66
2023/01/05 08:29:44;;;;;;;2.07;1.90;;;;;;;15.41;51.47;95914.88;5112080;28;20806;-64
2023/01/05 08:32:12;;;;;;;2.20;2.10;;;;;;;15.13;51.86;95908.53;5111906;28;20423;-65
2023/01/05 08:34:40;;;;;;;1.77;1.67;;;;;;;15.62;51.16;95906.41;5112270;28;20445;-65
2023/01/05 08:37:09;;;;;;;1.57;1.47;;;;;;;15.45;51.08;95902.56;5111914;28;20462;-65
2023/01/05 08:39:38;;;;;;;7.23;1.73;;;;;;;15.30;51.54;95895.53;5112280;28;20416;-65
2023/01/05 08:42:07;;;;;;;2.43;2.33;;;;;;;16.05;50.24;95882.31;5111393;28;20473;-64
2023/01/05 08:44:35;;;;;;;7.83;1.90;;;;;;;16.55;49.85;95880.75;5112133;28;20419;-63
2023/01/05 08:47:05;;;;;;;4.83;1.20;;;;;;;17.13;48.93;95877.31;5111385;28;20430;-63
2023/01/05 08:49:33;;;;;;;2.87;2.67;;;;;;;16.87;48.30;95878.88;5111315;28;20490;-62
2023/01/05 08:52:01;;;;;;;2.40;2.00;;;;;;;17.08;47.93;95868.56;5110915;28;20514;-63
2023/01/05 08:54:30;;;;;;;2.70;2.60;;;;;;;17.41;47.14;95872.75;5111404;28;20433;-61
2023/01/05 08:56:59;;;;;;;2.30;2.10;;;;;;;17.73;46.93;95856.56;5111366;28;20422;-61
2023/01/05 08:59:28;;;;;;;2.20;1.23;;;;;;;19.57;45.81;95853.34;5113096;28;20446;-61
2023/01/05 09:01:56;;;;;;;1.33;1.03;;;;;;;18.56;44.85;95846.38;5115763;28;20451;-61
2023/01/05 09:04:26;;;;;;;2.03;1.93;;;;;;;18.39;44.95;95833.63;5116316;28;20427;-61
2023/01/05 09:06:55;;;;;;;1.20;1.17;;;;;;;17.59;46.32;95822.81;5115280;28;20434;-61
2023/01/05 09:09:24;;;;;;;5.30;2.03;;;;;;;17.97;46.13;95824.13;5115775;28;21029;-61
2023/01/05 09:11:52;;;;;;;1.97;1.87;;;;;;;17.79;46.67;95819.69;5115816;28;20515;-61
2023/01/05 09:14:22;;;;;;;3.63;2.60;;;;;;;17.50;46.68;95812.00;5115768;28;20522;-60
2023/01/05 09:16:50;;;;;;;3.70;2.70;;;;;;;17.32;47.08;95815.59;5115736;28;20415;-60
2023/01/05 09:19:36;;;;;;;4.90;2.10;;;;;;;17.89;46.38;95803.38;5115574;28;20476;-60
2023/01/05 09:22:04;;;;;;;3.17;1.90;;;;;;;18.25;45.48;95798.78;5115434;28;20427;-59
2023/01/05 09:24:32;;;;;;;1.53;1.40;;;;;;;18.45;44.80;95797.47;5115470;28;20455;-58
2023/01/05 09:27:02;;;;;;;1.37;1.30;;;;;;;18.80;44.68;95788.53;5115202;28;20430;-58
2023/01/05 09:29:32;;;;;;;2.73;2.27;;;;;;;19.29;44.64;95786.66;5114759;28;20512;-58
2023/01/05 09:32:00;;;;;;;2.47;2.37;;;;;;;19.83;43.79;95779.97;5115596;28;20511;-58
2023/01/05 09:34:29;;;;;;;0.60;0.50;;;;;;;20.33;43.97;95777.59;5115535;28;20424;-58
2023/01/05 09:36:57;;;;;;;4.80;1.33;;;;;;;20.18;43.16;95776.97;5115525;28;20431;-57
2023/01/05 09:39:26;;;;;;;3.43;2.30;;;;;;;19.99;42.62;95736.13;5115342;28;20459;-58
2023/01/05 09:41:57;;;;;;;9.60;2.30;;;;;;;20.15;42.81;95771.41;5115227;28;20415;-58
2023/01/05 09:44:30;;;;;;;4.37;1.33;;;;;;;21.15;41.05;95745.63;5115456;28;20507;-56
2023/01/05 09:47:06;;;;;;;2.97;2.77;;;;;;;19.59;42.17;95722.06;5115001;28;20863;-57
2023/01/05 09:49:35;;;;;;;5.13;2.17;;;;;;;19.90;48.36;95748.00;5114675;28;20475;-52
2023/01/05 09:52:08;;;;;;;4.10;3.70;;;;;;;21.26;42.55;95744.16;5114957;28;20415;-52
2023/01/05 09:54:37;;;;;;;2.00;1.90;;;;;;;21.21;45.03;95716.59;5114163;28;20470;-52
2023/01/05 09:57:13;;;;;;;2.07;1.37;;;;;;;22.07;43.52;95727.53;5113246;28;20424;-53
2023/01/05 09:59:45;;;;;;;2.20;1.97;;;;;;;21.05;43.07;95726.34;5115068;28;20411;-53
2023/01/05 10:02:32;;;;;;;2.20;2.10;;;;;;;21.27;40.72;95718.78;5114621;28;20908;-53
2023/01/05 10:05:03;;;;;;;8.47;3.40;;;;;;;21.37;41.87;95721.09;5114708;28;20462;-53
2023/01/05 10:07:42;;;;;;;2.17;2.07;;;;;;;21.44;40.01;95689.00;5114653;28;20423;-56
2023/01/05 10:10:21;;;;;;;1.27;1.10;;;;;;;22.68;38.19;95699.59;5114167;28;20542;-57
2023/01/05 10:13:05;;;;;;;8.97;2.10;;;;;;;21.79;39.53;95711.09;5114351;28;20458;-56
2023/01/05 10:15:42;;;;;;;3.90;1.97;;;;;;;20.78;40.08;95665.59;5114401;28;20950;-56
2023/01/05 10:18:15;;;;;;;2.63;2.43;;;;;;;22.73;37.82;95691.28;5114386;28;20416;-56
2023/01/05 10:21:03;;;;;;;3.03;1.43;;;;;;;22.09;38.52;95690.19;5113707;28;20456;-56
2023/01/05 10:23:48;;;;;;;1.40;1.30;;;;;;;22.24;38.42;95681.47;5114503;28;20778;-56
2023/01/05 10:26:24;;;;;;;7.57;2.63;;;;;;;20.13;40.99;95639.06;5113760;28;20516;-56
2023/01/05 10:28:59;;;;;;;2.40;2.30;;;;;;;21.05;40.08;95643.56;5114507;28;20849;-57
2023/01/05 10:31:43;;;;;;;3.47;3.17;;;;;;;21.86;40.33;95665.50;5113963;28;20463;-56
2023/01/05 10:34:21;;;;;;;1.73;1.63;;;;;;;22.46;38.35;95656.78;5113836;28;20423;-57
2023/01/05 10:37:03;;;;;;;6.67;2.60;;;;;;;22.20;38.92;95653.56;5114189;28;20420;-56
2023/01/05 10:39:59;;;;;;;2.27;2.03;;;;;;;23.92;36.80;95641.91;5114088;28;20424;-56
2023/01/05 10:42:44;;;;;;;1.13;1.03;;;;;;;23.66;36.37;95613.72;5114094;28;20415;-56
2023/01/05 10:45:14;;;;;;;1.33;1.23;;;;;;;23.52;36.54;95578.16;5113871;28;20432;-57
2023/01/05 10:47:45;;;;;;;3.87;1.10;;;;;;;24.26;35.57;95613.41;5113919;28;20422;-56
2023/01/05 10:50:35;;;;;;;2.47;1.53;;;;;;;22.66;37.15;95625.41;5113839;28;20522;-56
2023/01/05 10:53:09;;;;;;;1.03;1.03;;;;;;;22.92;37.70;95608.84;5113700;28;20467;-57
2023/01/05 10:55:45;;;;;;;0.93;0.93;;;;;;;22.61;36.22;95556.16;5113272;28;20419;-56
2023/01/05 10:58:24;;;;;;;5.27;2.17;;;;;;;22.93;36.32;95596.88;5113220;28;20434;-56
2023/01/05 11:00:55;;;;;;;1.63;1.53;;;;;;;22.88;36.49;95597.09;5113533;28;20455;-56
2023/01/05 11:03:35;;;;;;;1.83;1.73;;;;;;;23.49;35.67;95582.34;5113508;28;20456;-54
2023/01/05 11:06:30;;;;;;;0.97;0.83;;;;;;;24.43;35.53;95580.56;5113596;28;20439;-54
2023/01/05 11:09:07;;;;;;;4.20;1.13;;;;;;;24.75;33.46;95567.75;5113594;28;20496;-55
2023/01/05 11:11:35;;;;;;;1.33;1.23;;;;;;;24.84;34.30;95562.19;5113111;28;20474;-54
2023/01/05 11:14:05;;;;;;;1.23;1.13;;;;;;;24.84;32.99;95538.56;5113100;28;20493;-54
2023/01/05 11:16:37;;;;;;;1.10;0.83;;;;;;;23.87;33.95;95544.72;5113084;28;20455;-55
2023/01/05 11:19:12;;;;;;;1.40;1.30;;;;;;;23.51;35.17;95476.47;5113339;28;20424;-54
2023/01/05 11:21:44;;;;;;;1.20;1.10;;;;;;;23.69;34.22;95535.34;5112393;28;20416;-54
2023/01/05 11:24:31;;;;;;;4.00;1.03;;;;;;;23.12;34.00;95524.06;5113031;28;20431;-54
2023/01/05 11:27:02;;;;;;;0.73;0.73;;;;;;;23.40;34.16;95529.50;5113328;28;20757;-55
2023/01/05 11:29:30;;;;;;;1.47;1.47;;;;;;;23.96;34.50;95514.75;5113266;28;20431;-54
2023/01/05 11:32:01;;;;;;;0.90;0.90;;;;;;;23.38;35.59;95514.41;5112533;28;20463;-55
2023/01/05 11:34:42;;;;;;;6.30;2.50;;;;;;;22.05;37.25;95524.63;5112797;28;20428;-55
2023/01/05 11:37:24;;;;;;;0.90;0.90;;;;;;;23.86;35.22;95513.34;5112523;28;20534;-55
2023/01/05 11:39:55;;;;;;;0.50;0.47;;;;;;;24.17;33.52;95509.09;5112776;28;20431;-55
2023/01/05 11:42:32;;;;;;;1.67;0.87;;;;;;;22.57;35.71;95514.69;5112456;28;20420;-55
2023/01/05 11:45:03;;;;;;;1.17;1.07;;;;;;;23.45;35.57;95513.81;5112535;28;20458;-56
2023/01/05 11:47:37;;;;;;;1.20;1.10;;;;;;;23.51;35.39;95509.72;5113026;28;20527;-56
2023/01/05 11:50:21;;;;;;;0.97;0.97;;;;;;;23.85;33.73;95506.38;5112420;28;20482;-55
2023/01/05 11:52:52;;;;;;;1.10;1.00;;;;;;;23.62;34.10;95493.78;5112455;28;20908;-55
2023/01/05 11:55:33;;;;;;;0.70;0.70;;;;;;;23.81;33.41;95415.38;5112746;28;20805;-56
2023/01/05 11:58:17;;;;;;;0.60;0.60;;;;;;;24.07;33.24;95496.06;5112358;28;20507;-56
2023/01/05 12:01:32;;;;;;;1.50;0.60;;;;;;;22.54;35.56;95482.19;5112362;28;20766;-56
2023/01/05 12:04:10;;;;;;;1.17;0.70;;;;;;;23.50;34.19;95478.41;5093669;28;20474;-56
2023/01/05 12:06:56;;;;;;;1.50;1.40;;;;;;;24.25;33.59;95443.13;5112899;28;20450;-56
2023/01/05 12:09:31;;;;;;;0.60;0.40;;;;;;;23.46;34.57;95417.19;5112381;28;20484;-56
2023/01/05 12:12:39;;;;;;;17.23;1.17;;;;;;;23.05;34.69;95480.59;5112054;28;20470;-56
2023/01/05 12:15:41;;;;;;;1.63;0.93;;;;;;;22.89;35.17;95471.66;5112719;28;20416;-56
2023/01/05 12:18:32;;;;;;;0.43;0.40;;;;;;;24.46;33.46;95405.66;5112359;28;20447;-56
2023/01/05 12:21:07;;;;;;;5.93;1.67;;;;;;;24.06;33.76;95443.81;5112631;28;20835;-56
2023/01/05 12:24:05;;;;;;;0.70;0.50;;;;;;;24.43;34.04;95468.69;5112571;28;20419;-56
2023/01/05 12:26:42;;;;;;;1.10;0.50;;;;;;;25.63;31.75;95455.66;5111504;28;20455;-56
2023/01/05 12:29:56;;;;;;;0.77;0.57;;;;;;;25.45;31.30;95424.69;5111378;28;20940;-56
2023/01/05 12:32:57;;;;;;;1.73;1.63;;;;;;;25.29;30.83;95374.38;5083579;28;20439;-56
2023/01/05 12:36:08;;;;;;;0.77;0.77;;;;;;;25.00;31.68;95430.81;5111432;28;20435;-56